sensor_id;sensor_type;location;lat;lon;timestamp;pressure;altitude;pressure_sealevel;temperature;humidity
62548;BME280;48602;45.192;5.722;2022-12-29T00:01:17;99626.81;;;5.82;83.91
62548;BME280;48602;45.192;5.722;2022-12-29T00:03:46;99615.50;;;5.80;83.83
62548;BME280;48602;45.192;5.722;2022-12-29T00:06:11;99624.22;;;5.81;83.79
62548;BME280;48602;45.192;5.722;2022-12-29T00:08:37;99619.00;;;5.79;83.87
62548;BME280;48602;45.192;5.722;2022-12-29T00:11:13;99623.41;;;5.76;83.69
62548;BME280;48602;45.192;5.722;2022-12-29T00:13:39;99619.91;;;5.75;84.04
62548;BME280;48602;45.192;5.722;2022-12-29T00:16:23;99615.56;;;5.74;83.81
62548;BME280;48602;45.192;5.722;2022-12-29T00:18:49;99617.31;;;5.74;83.73
62548;BME280;48602;45.192;5.722;2022-12-29T00:21:17;99615.59;;;5.73;83.95
62548;BME280;48602;45.192;5.722;2022-12-29T00:24:01;99607.75;;;5.71;83.78
62548;BME280;48602;45.192;5.722;2022-12-29T00:26:47;99601.72;;;5.69;83.55
62548;BME280;48602;45.192;5.722;2022-12-29T00:29:31;99598.28;;;5.64;83.71
62548;BME280;48602;45.192;5.722;2022-12-29T00:32:15;99592.19;;;5.64;83.71
62548;BME280;48602;45.192;5.722;2022-12-29T00:34:59;99599.19;;;5.60;83.63
62548;BME280;48602;45.192;5.722;2022-12-29T00:37:44;99600.06;;;5.59;83.45
62548;BME280;48602;45.192;5.722;2022-12-29T00:40:29;99594.84;;;5.57;84.01
62548;BME280;48602;45.192;5.722;2022-12-29T00:43:14;99584.41;;;5.56;83.73
62548;BME280;48602;45.192;5.722;2022-12-29T00:45:58;99587.03;;;5.54;83.84
62548;BME280;48602;45.192;5.722;2022-12-29T00:48:23;99598.44;;;5.52;83.73
62548;BME280;48602;45.192;5.722;2022-12-29T00:51:07;99598.44;;;5.50;83.61
62548;BME280;48602;45.192;5.722;2022-12-29T00:53:33;99594.09;;;5.51;83.74
62548;BME280;48602;45.192;5.722;2022-12-29T00:55:59;99600.19;;;5.50;83.68
62548;BME280;48602;45.192;5.722;2022-12-29T00:58:27;99591.47;;;5.49;83.51
62548;BME280;48602;45.192;5.722;2022-12-29T01:01:00;99590.63;;;5.49;83.63
62548;BME280;48602;45.192;5.722;2022-12-29T01:03:26;99585.38;;;5.49;83.59
62548;BME280;48602;45.192;5.722;2022-12-29T01:05:51;99578.44;;;5.46;83.62
62548;BME280;48602;45.192;5.722;2022-12-29T01:08:16;99585.44;;;5.44;83.71
62548;BME280;48602;45.192;5.722;2022-12-29T01:10:42;99575.84;;;5.43;83.59
62548;BME280;48602;45.192;5.722;2022-12-29T01:13:07;99590.72;;;5.40;83.89
62548;BME280;48602;45.192;5.722;2022-12-29T01:15:33;99585.50;;;5.38;83.97
62548;BME280;48602;45.192;5.722;2022-12-29T01:17:58;99590.75;;;5.37;83.95
62548;BME280;48602;45.192;5.722;2022-12-29T01:20:23;99589.91;;;5.35;84.16
62548;BME280;48602;45.192;5.722;2022-12-29T01:22:49;99574.22;;;5.36;84.05
62548;BME280;48602;45.192;5.722;2022-12-29T01:25:14;99581.19;;;5.36;84.32
62548;BME280;48602;45.192;5.722;2022-12-29T01:27:40;99582.06;;;5.36;84.34
62548;BME280;48602;45.192;5.722;2022-12-29T01:30:05;99586.44;;;5.36;84.09
62548;BME280;48602;45.192;5.722;2022-12-29T01:32:31;99587.31;;;5.35;84.16
62548;BME280;48602;45.192;5.722;2022-12-29T01:34:56;99584.69;;;5.35;84.35
62548;BME280;48602;45.192;5.722;2022-12-29T01:37:22;99582.91;;;5.37;84.14
62548;BME280;48602;45.192;5.722;2022-12-29T01:39:47;99584.63;;;5.38;84.37
62548;BME280;48602;45.192;5.722;2022-12-29T01:42:17;99589.84;;;5.39;84.09
62548;BME280;48602;45.192;5.722;2022-12-29T01:44:47;99587.22;;;5.39;83.95
62548;BME280;48602;45.192;5.722;2022-12-29T01:47:38;99588.09;;;5.40;83.83
62548;BME280;48602;45.192;5.722;2022-12-29T01:52:59;99593.34;;;5.38;83.46
62548;BME280;48602;45.192;5.722;2022-12-29T01:55:27;99595.97;;;5.37;83.73
62548;BME280;48602;45.192;5.722;2022-12-29T01:57:57;99595.16;;;5.35;83.85
62548;BME280;48602;45.192;5.722;2022-12-29T02:00:25;99596.84;;;5.37;83.55
62548;BME280;48602;45.192;5.722;2022-12-29T02:02:54;99604.69;;;5.37;83.29
62548;BME280;48602;45.192;5.722;2022-12-29T02:05:37;99606.41;;;5.38;83.77
62548;BME280;48602;45.192;5.722;2022-12-29T02:08:04;99607.34;;;5.36;83.39
62548;BME280;48602;45.192;5.722;2022-12-29T02:10:33;99604.69;;;5.37;83.49
62548;BME280;48602;45.192;5.722;2022-12-29T02:13:00;99597.66;;;5.41;83.42
62548;BME280;48602;45.192;5.722;2022-12-29T02:40:53;99568.59;;;5.68;82.42
62548;BME280;48602;45.192;5.722;2022-12-29T02:45:58;99556.25;;;5.76;81.93
62548;BME280;48602;45.192;5.722;2022-12-29T02:50:58;99556.22;;;5.79;81.40
62548;BME280;48602;45.192;5.722;2022-12-29T02:53:26;99551.81;;;5.81;81.55
62548;BME280;48602;45.192;5.722;2022-12-29T02:56:15;99544.84;;;5.82;81.27
62548;BME280;48602;45.192;5.722;2022-12-29T02:58:40;99548.31;;;5.82;81.28
62548;BME280;48602;45.192;5.722;2022-12-29T03:06:39;99544.81;;;5.83;80.78
62548;BME280;48602;45.192;5.722;2022-12-29T03:09:21;99535.25;;;5.81;80.67
62548;BME280;48602;45.192;5.722;2022-12-29T03:12:12;99537.88;;;5.81;80.69
62548;BME280;48602;45.192;5.722;2022-12-29T03:17:56;99541.44;;;5.75;80.60
62548;BME280;48602;45.192;5.722;2022-12-29T03:20:32;99535.31;;;5.76;80.66
62548;BME280;48602;45.192;5.722;2022-12-29T03:23:01;99529.22;;;5.76;80.85
62548;BME280;48602;45.192;5.722;2022-12-29T03:25:35;99525.75;;;5.75;80.88
62548;BME280;48602;45.192;5.722;2022-12-29T03:28:07;99514.38;;;5.78;80.84
62548;BME280;48602;45.192;5.722;2022-12-29T03:30:35;99516.97;;;5.79;80.66
62548;BME280;48602;45.192;5.722;2022-12-29T03:33:04;99523.91;;;5.82;80.50
62548;BME280;48602;45.192;5.722;2022-12-29T03:35:34;99522.16;;;5.84;80.63
62548;BME280;48602;45.192;5.722;2022-12-29T03:38:24;99519.50;;;5.85;80.32
62548;BME280;48602;45.192;5.722;2022-12-29T03:40:56;99529.94;;;5.88;80.16
62548;BME280;48602;45.192;5.722;2022-12-29T03:43:23;99536.94;;;5.86;80.28
62548;BME280;48602;45.192;5.722;2022-12-29T03:45:49;99522.16;;;5.82;80.28
62548;BME280;48602;45.192;5.722;2022-12-29T03:48:14;99523.91;;;5.82;80.35
62548;BME280;48602;45.192;5.722;2022-12-29T03:50:40;99527.38;;;5.84;80.45
62548;BME280;48602;45.192;5.722;2022-12-29T03:53:05;99529.97;;;5.85;79.85
62548;BME280;48602;45.192;5.722;2022-12-29T03:55:31;99531.66;;;5.88;79.58
62548;BME280;48602;45.192;5.722;2022-12-29T03:57:56;99541.22;;;5.92;79.55
62548;BME280;48602;45.192;5.722;2022-12-29T04:00:21;99542.06;;;5.94;79.33
62548;BME280;48602;45.192;5.722;2022-12-29T04:02:47;99529.84;;;5.96;79.21
62548;BME280;48602;45.192;5.722;2022-12-29T04:05:12;99536.81;;;5.97;78.87
62548;BME280;48602;45.192;5.722;2022-12-29T04:07:38;99541.16;;;5.98;78.74
62548;BME280;48602;45.192;5.722;2022-12-29T04:10:04;99548.97;;;6.00;79.08
62548;BME280;48602;45.192;5.722;2022-12-29T04:12:29;99568.97;;;6.04;78.25
62548;BME280;48602;45.192;5.722;2022-12-29T04:14:54;99560.22;;;6.05;77.85
62548;BME280;48602;45.192;5.722;2022-12-29T04:17:20;99555.84;;;6.05;77.99
62548;BME280;48602;45.192;5.722;2022-12-29T04:19:45;99541.00;;;6.07;77.78
62548;BME280;48602;45.192;5.722;2022-12-29T04:22:10;99552.34;;;6.08;77.64
62548;BME280;48602;45.192;5.722;2022-12-29T04:24:37;99561.91;;;6.09;77.41
62548;BME280;48602;45.192;5.722;2022-12-29T04:27:02;99559.28;;;6.10;77.15
62548;BME280;48602;45.192;5.722;2022-12-29T04:29:28;99566.19;;;6.14;76.85
62548;BME280;48602;45.192;5.722;2022-12-29T04:31:53;99558.34;;;6.14;76.70
62548;BME280;48602;45.192;5.722;2022-12-29T04:34:18;99545.25;;;6.14;76.95
62548;BME280;48602;45.192;5.722;2022-12-29T04:36:44;99553.09;;;6.16;76.58
62548;BME280;48602;45.192;5.722;2022-12-29T04:39:09;99553.06;;;6.17;76.50
62548;BME280;48602;45.192;5.722;2022-12-29T04:41:35;99551.31;;;6.18;76.50
62548;BME280;48602;45.192;5.722;2022-12-29T04:44:00;99557.41;;;6.20;76.48
62548;BME280;48602;45.192;5.722;2022-12-29T04:46:26;99547.75;;;6.20;76.32
62548;BME280;48602;45.192;5.722;2022-12-29T04:48:51;99559.09;;;6.22;76.09
62548;BME280;48602;45.192;5.722;2022-12-29T04:51:17;99559.94;;;6.24;76.31
62548;BME280;48602;45.192;5.722;2022-12-29T04:53:42;99555.53;;;6.26;75.99
62548;BME280;48602;45.192;5.722;2022-12-29T04:56:07;99555.50;;;6.28;75.81
62548;BME280;48602;45.192;5.722;2022-12-29T04:58:34;99555.47;;;6.31;75.98
62548;BME280;48602;45.192;5.722;2022-12-29T05:01:00;99552.78;;;6.36;76.22
62548;BME280;48602;45.192;5.722;2022-12-29T05:03:25;99550.09;;;6.39;76.08
62548;BME280;48602;45.192;5.722;2022-12-29T05:05:53;99550.94;;;6.41;75.72
62548;BME280;48602;45.192;5.722;2022-12-29T05:08:19;99555.28;;;6.42;75.63
62548;BME280;48602;45.192;5.722;2022-12-29T05:10:45;99554.41;;;6.43;75.51
62548;BME280;48602;45.192;5.722;2022-12-29T05:13:11;99547.38;;;6.46;75.50
62548;BME280;48602;45.192;5.722;2022-12-29T05:15:36;99553.47;;;6.47;75.25
62548;BME280;48602;45.192;5.722;2022-12-29T05:18:02;99558.66;;;6.50;75.03
62548;BME280;48602;45.192;5.722;2022-12-29T05:20:27;99542.06;;;6.49;74.95
62548;BME280;48602;45.192;5.722;2022-12-29T05:22:52;99549.06;;;6.50;74.87
62548;BME280;48602;45.192;5.722;2022-12-29T05:25:18;99553.41;;;6.51;74.72
62548;BME280;48602;45.192;5.722;2022-12-29T05:27:43;99556.88;;;6.52;74.61
62548;BME280;48602;45.192;5.722;2022-12-29T05:30:09;99552.50;;;6.52;74.54
62548;BME280;48602;45.192;5.722;2022-12-29T05:32:35;99550.69;;;6.54;74.86
62548;BME280;48602;45.192;5.722;2022-12-29T05:35:00;99541.94;;;6.57;74.95
62548;BME280;48602;45.192;5.722;2022-12-29T05:37:25;99542.78;;;6.57;75.13
62548;BME280;48602;45.192;5.722;2022-12-29T05:39:51;99541.88;;;6.60;75.11
62548;BME280;48602;45.192;5.722;2022-12-29T05:42:16;99550.59;;;6.62;74.74
62548;BME280;48602;45.192;5.722;2022-12-29T05:44:42;99551.44;;;6.64;74.71
62548;BME280;48602;45.192;5.722;2022-12-29T05:47:07;99546.13;;;6.67;74.25
62548;BME280;48602;45.192;5.722;2022-12-29T05:49:32;99547.88;;;6.68;74.15
62548;BME280;48602;45.192;5.722;2022-12-29T05:51:58;99533.00;;;6.69;74.41
62548;BME280;48602;45.192;5.722;2022-12-29T05:54:23;99532.06;;;6.71;74.37
62548;BME280;48602;45.192;5.722;2022-12-29T05:56:49;99529.41;;;6.73;74.28
62548;BME280;48602;45.192;5.722;2022-12-29T05:59:14;99532.03;;;6.73;73.70
62548;BME280;48602;45.192;5.722;2022-12-29T06:01:39;99541.75;;;6.69;73.31
62548;BME280;48602;45.192;5.722;2022-12-29T06:04:05;99541.75;;;6.68;73.11
62548;BME280;48602;45.192;5.722;2022-12-29T06:06:30;99545.28;;;6.67;73.21
62548;BME280;48602;45.192;5.722;2022-12-29T06:08:56;99531.31;;;6.66;73.17
62548;BME280;48602;45.192;5.722;2022-12-29T06:11:21;99535.66;;;6.67;73.02
62548;BME280;48602;45.192;5.722;2022-12-29T06:13:47;99535.66;;;6.67;72.82
62548;BME280;48602;45.192;5.722;2022-12-29T06:16:12;99539.13;;;6.69;72.54
62548;BME280;48602;45.192;5.722;2022-12-29T06:18:37;99540.84;;;6.70;72.55
62548;BME280;48602;45.192;5.722;2022-12-29T06:21:04;99540.00;;;6.70;72.45
62548;BME280;48602;45.192;5.722;2022-12-29T06:23:30;99536.53;;;6.68;72.51
62548;BME280;48602;45.192;5.722;2022-12-29T06:25:55;99539.13;;;6.69;72.27
62548;BME280;48602;45.192;5.722;2022-12-29T06:28:21;99537.38;;;6.68;72.38
62548;BME280;48602;45.192;5.722;2022-12-29T06:30:47;99539.13;;;6.69;72.06
62548;BME280;48602;45.192;5.722;2022-12-29T06:33:13;99544.31;;;6.71;72.57
62548;BME280;48602;45.192;5.722;2022-12-29T06:35:38;99555.63;;;6.73;72.21
62548;BME280;48602;45.192;5.722;2022-12-29T06:38:04;99550.34;;;6.74;71.92
62548;BME280;48602;45.192;5.722;2022-12-29T06:40:30;99559.03;;;6.78;72.14
62548;BME280;48602;45.192;5.722;2022-12-29T06:42:55;99552.84;;;6.82;71.98
62548;BME280;48602;45.192;5.722;2022-12-29T06:45:21;99562.41;;;6.86;71.51
62548;BME280;48602;45.192;5.722;2022-12-29T06:47:46;99559.69;;;6.89;71.55
62548;BME280;48602;45.192;5.722;2022-12-29T06:50:12;99553.53;;;6.91;71.45
62548;BME280;48602;45.192;5.722;2022-12-29T06:52:37;99551.75;;;6.93;71.17
62548;BME280;48602;45.192;5.722;2022-12-29T06:55:03;99542.13;;;6.94;70.95
62548;BME280;48602;45.192;5.722;2022-12-29T06:57:28;99555.19;;;6.97;70.27
62548;BME280;48602;45.192;5.722;2022-12-29T06:59:54;99557.78;;;6.98;70.19
62548;BME280;48602;45.192;5.722;2022-12-29T07:02:23;99563.91;;;6.97;69.90
62548;BME280;48602;45.192;5.722;2022-12-29T07:04:50;99563.06;;;6.97;70.30
62548;BME280;48602;45.192;5.722;2022-12-29T07:07:17;99556.09;;;6.96;70.54
62548;BME280;48602;45.192;5.722;2022-12-29T07:09:42;99555.16;;;6.98;70.78
62548;BME280;48602;45.192;5.722;2022-12-29T07:12:08;99544.72;;;6.97;70.89
62548;BME280;48602;45.192;5.722;2022-12-29T07:14:33;99536.03;;;6.93;71.30
62548;BME280;48602;45.192;5.722;2022-12-29T07:16:59;99547.47;;;6.89;71.35
62548;BME280;48602;45.192;5.722;2022-12-29T07:19:24;99558.06;;;6.85;71.78
62548;BME280;48602;45.192;5.722;2022-12-29T07:21:49;99566.84;;;6.81;71.91
62548;BME280;48602;45.192;5.722;2022-12-29T07:24:15;99582.56;;;6.81;71.92
62548;BME280;48602;45.192;5.722;2022-12-29T07:26:40;99572.09;;;6.81;72.18
62548;BME280;48602;45.192;5.722;2022-12-29T07:29:06;99570.41;;;6.77;71.71
62548;BME280;48602;45.192;5.722;2022-12-29T07:31:32;99566.91;;;6.78;72.02
62548;BME280;48602;45.192;5.722;2022-12-29T07:33:57;99577.41;;;6.76;72.00
62548;BME280;48602;45.192;5.722;2022-12-29T07:36:23;99567.78;;;6.77;71.96
62548;BME280;48602;45.192;5.722;2022-12-29T07:38:48;99570.41;;;6.77;71.81
62548;BME280;48602;45.192;5.722;2022-12-29T07:41:14;99577.41;;;6.76;72.03
62548;BME280;48602;45.192;5.722;2022-12-29T07:43:39;99574.78;;;6.76;72.05
62548;BME280;48602;45.192;5.722;2022-12-29T07:46:04;99579.09;;;6.80;71.71
62548;BME280;48602;45.192;5.722;2022-12-29T07:48:30;99574.69;;;6.82;71.38
62548;BME280;48602;45.192;5.722;2022-12-29T07:50:55;99567.66;;;6.84;70.91
62548;BME280;48602;45.192;5.722;2022-12-29T07:53:21;99559.72;;;6.87;70.35
62548;BME280;48602;45.192;5.722;2022-12-29T07:55:46;99564.03;;;6.91;70.45
62548;BME280;48602;45.192;5.722;2022-12-29T07:58:12;99558.72;;;6.94;69.78
62548;BME280;48602;45.192;5.722;2022-12-29T08:00:38;99558.72;;;6.96;70.00
62548;BME280;48602;45.192;5.722;2022-12-29T08:03:04;99556.09;;;6.96;69.70
62548;BME280;48602;45.192;5.722;2022-12-29T08:05:31;99563.03;;;6.98;69.07
62548;BME280;48602;45.192;5.722;2022-12-29T08:07:56;99553.38;;;7.00;69.69
62548;BME280;48602;45.192;5.722;2022-12-29T08:10:22;99551.59;;;7.03;69.86
62548;BME280;48602;45.192;5.722;2022-12-29T08:12:47;99550.72;;;7.04;69.87
62548;BME280;48602;45.192;5.722;2022-12-29T08:15:13;99542.75;;;7.07;68.48
62548;BME280;48602;45.192;5.722;2022-12-29T08:17:38;99549.63;;;7.14;68.05
62548;BME280;48602;45.192;5.722;2022-12-29T08:20:04;99545.09;;;7.22;68.28
62548;BME280;48602;45.192;5.722;2022-12-29T08:22:30;99541.47;;;7.29;68.52
62548;BME280;48602;45.192;5.722;2022-12-29T08:24:55;99533.38;;;7.38;68.14
62548;BME280;48602;45.192;5.722;2022-12-29T08:27:21;99529.75;;;7.45;68.37
62548;BME280;48602;45.192;5.722;2022-12-29T08:29:47;99536.53;;;7.55;68.27
62548;BME280;48602;45.192;5.722;2022-12-29T08:32:12;99531.09;;;7.64;67.79
62548;BME280;48602;45.192;5.722;2022-12-29T08:34:38;99537.03;;;7.72;67.31
62548;BME280;48602;45.192;5.722;2022-12-29T08:37:03;99538.63;;;7.80;66.73
62548;BME280;48602;45.192;5.722;2022-12-29T08:39:29;99527.91;;;7.89;66.29
62548;BME280;48602;45.192;5.722;2022-12-29T08:41:54;99520.78;;;7.95;66.74
62548;BME280;48602;45.192;5.722;2022-12-29T08:44:20;99525.78;;;8.04;66.68
62548;BME280;48602;45.192;5.722;2022-12-29T08:46:45;99516.03;;;8.11;66.44
62548;BME280;48602;45.192;5.722;2022-12-29T08:49:11;99521.09;;;8.19;66.45
62548;BME280;48602;45.192;5.722;2022-12-29T08:51:36;99531.41;;;8.26;65.71
62548;BME280;48602;45.192;5.722;2022-12-29T08:54:01;99524.28;;;8.31;65.30
62548;BME280;48602;45.192;5.722;2022-12-29T08:56:27;99532.97;;;8.36;65.43
62548;BME280;48602;45.192;5.722;2022-12-29T08:58:53;99515.34;;;8.40;65.59
62548;BME280;48602;45.192;5.722;2022-12-29T09:01:19;99524.03;;;8.42;65.94
62548;BME280;48602;45.192;5.722;2022-12-29T09:03:45;99515.31;;;8.42;65.83
62548;BME280;48602;45.192;5.722;2022-12-29T09:06:11;99516.16;;;8.42;65.95
62548;BME280;48602;45.192;5.722;2022-12-29T09:08:37;99518.78;;;8.42;65.68
62548;BME280;48602;45.192;5.722;2022-12-29T09:11:20;99503.94;;;8.41;65.57
62548;BME280;48602;45.192;5.722;2022-12-29T09:13:46;99505.69;;;8.40;65.71
62548;BME280;48602;45.192;5.722;2022-12-29T09:16:12;99501.34;;;8.39;65.44
62548;BME280;48602;45.192;5.722;2022-12-29T09:18:38;99503.97;;;8.39;65.69
62548;BME280;48602;45.192;5.722;2022-12-29T09:21:05;99504.00;;;8.38;65.70
62548;BME280;48602;45.192;5.722;2022-12-29T09:23:31;99507.59;;;8.35;65.66
62548;BME280;48602;45.192;5.722;2022-12-29T09:25:57;99507.59;;;8.35;65.29
62548;BME280;48602;45.192;5.722;2022-12-29T09:28:22;99508.47;;;8.36;65.63
62548;BME280;48602;45.192;5.722;2022-12-29T09:30:49;99511.09;;;8.36;66.05
62548;BME280;48602;45.192;5.722;2022-12-29T09:33:15;99509.34;;;8.35;65.95
62548;BME280;48602;45.192;5.722;2022-12-29T09:35:44;99528.66;;;8.34;65.78
62548;BME280;48602;45.192;5.722;2022-12-29T09:38:11;99505.00;;;8.34;66.23
62548;BME280;48602;45.192;5.722;2022-12-29T09:40:37;99505.91;;;8.31;64.96
62548;BME280;48602;45.192;5.722;2022-12-29T09:46:26;99491.78;;;8.37;65.31
62548;BME280;48602;45.192;5.722;2022-12-29T09:49:34;99485.50;;;8.43;65.10
62548;BME280;48602;45.192;5.722;2022-12-29T09:52:14;99501.94;;;8.51;64.91
62548;BME280;48602;45.192;5.722;2022-12-29T09:54:56;99506.13;;;8.58;65.02
62548;BME280;48602;45.192;5.722;2022-12-29T10:00:21;99497.84;;;8.73;64.99
62548;BME280;48602;45.192;5.722;2022-12-29T10:02:52;99499.38;;;8.82;65.01
62548;BME280;48602;45.192;5.722;2022-12-29T10:08:10;99498.09;;;8.96;65.07
62548;BME280;48602;45.192;5.722;2022-12-29T10:10:43;99486.53;;;9.02;65.27
62548;BME280;48602;45.192;5.722;2022-12-29T10:13:28;99487.25;;;9.07;65.48
62548;BME280;48602;45.192;5.722;2022-12-29T10:23:51;99477.41;;;9.15;65.86
62548;BME280;48602;45.192;5.722;2022-12-29T10:26:20;99457.13;;;9.19;65.60
62548;BME280;48602;45.192;5.722;2022-12-29T10:29:11;99448.44;;;9.17;65.39
62548;BME280;48602;45.192;5.722;2022-12-29T10:31:44;99438.00;;;9.14;65.50
62548;BME280;48602;45.192;5.722;2022-12-29T10:34:29;99430.09;;;9.14;65.20
62548;BME280;48602;45.192;5.722;2022-12-29T10:37:18;99424.88;;;9.12;65.24
62548;BME280;48602;45.192;5.722;2022-12-29T10:39:52;99402.13;;;9.11;65.33
62548;BME280;48602;45.192;5.722;2022-12-29T10:44:54;99435.47;;;9.09;64.32
62548;BME280;48602;45.192;5.722;2022-12-29T10:47:29;99409.06;;;9.14;64.23
62548;BME280;48602;45.192;5.722;2022-12-29T10:49:56;99413.31;;;9.18;64.83
62548;BME280;48602;45.192;5.722;2022-12-29T10:52:24;99412.25;;;9.23;64.34
62548;BME280;48602;45.192;5.722;2022-12-29T10:55:00;99413.72;;;9.33;64.66
62548;BME280;48602;45.192;5.722;2022-12-29T10:57:39;99394.09;;;9.43;64.78
62548;BME280;48602;45.192;5.722;2022-12-29T11:00:17;99382.31;;;9.55;64.32
62548;BME280;48602;45.192;5.722;2022-12-29T11:07:59;99375.19;;;9.87;63.19
62548;BME280;48602;45.192;5.722;2022-12-29T11:10:30;99369.63;;;9.94;63.49
62548;BME280;48602;45.192;5.722;2022-12-29T11:13:26;99373.00;;;9.99;62.91
62548;BME280;48602;45.192;5.722;2022-12-29T11:15:52;99349.06;;;10.05;63.25
62548;BME280;48602;45.192;5.722;2022-12-29T11:18:32;99348.81;;;10.13;62.91
62548;BME280;48602;45.192;5.722;2022-12-29T11:21:00;99339.81;;;10.20;62.88
62548;BME280;48602;45.192;5.722;2022-12-29T11:23:33;99338.63;;;10.29;62.62
62548;BME280;48602;45.192;5.722;2022-12-29T11:26:21;99332.19;;;10.37;62.54
62548;BME280;48602;45.192;5.722;2022-12-29T11:31:52;99321.78;;;10.56;63.11
62548;BME280;48602;45.192;5.722;2022-12-29T11:34:23;99325.88;;;10.65;62.98
62548;BME280;48602;45.192;5.722;2022-12-29T11:36:52;99321.97;;;10.75;63.08
62548;BME280;48602;45.192;5.722;2022-12-29T11:42:14;99320.31;;;10.96;62.71
62548;BME280;48602;45.192;5.722;2022-12-29T11:44:44;99319.13;;;11.04;62.21
62548;BME280;48602;45.192;5.722;2022-12-29T11:47:26;99322.28;;;11.12;62.11
62548;BME280;48602;45.192;5.722;2022-12-29T11:49:56;99315.81;;;11.21;61.83
62548;BME280;48602;45.192;5.722;2022-12-29T11:52:26;99320.84;;;11.27;61.12
62548;BME280;48602;45.192;5.722;2022-12-29T11:54:53;99320.72;;;11.30;59.22
62548;BME280;48602;45.192;5.722;2022-12-29T11:57:21;99309.19;;;11.33;58.95
62548;BME280;48602;45.192;5.722;2022-12-29T11:59:57;99303.78;;;11.36;58.89
62548;BME280;48602;45.192;5.722;2022-12-29T12:05:10;99298.13;;;11.45;56.40
62548;BME280;48602;45.192;5.722;2022-12-29T12:07:44;99282.03;;;11.51;56.87
62548;BME280;48602;45.192;5.722;2022-12-29T12:10:20;99281.69;;;11.59;57.60
62548;BME280;48602;45.192;5.722;2022-12-29T12:13:17;99287.47;;;11.68;57.38
62548;BME280;48602;45.192;5.722;2022-12-29T12:15:49;99280.03;;;11.78;58.18
62548;BME280;48602;45.192;5.722;2022-12-29T12:18:40;99274.31;;;11.88;57.52
62548;BME280;48602;45.192;5.722;2022-12-29T12:21:09;99264.25;;;11.97;58.59
62548;BME280;48602;45.192;5.722;2022-12-29T12:26:59;99259.03;;;12.15;58.24
62548;BME280;48602;45.192;5.722;2022-12-29T12:34:54;99263.25;;;12.40;58.58
62548;BME280;48602;45.192;5.722;2022-12-29T12:53:28;99215.38;;;13.01;57.92
62548;BME280;48602;45.192;5.722;2022-12-29T13:01:08;99193.03;;;13.25;57.16
62548;BME280;48602;45.192;5.722;2022-12-29T13:04:01;99182.94;;;13.33;56.74
62548;BME280;48602;45.192;5.722;2022-12-29T13:09:29;99191.81;;;13.49;56.42
62548;BME280;48602;45.192;5.722;2022-12-29T13:12:18;99193.44;;;13.52;56.76
62548;BME280;48602;45.192;5.722;2022-12-29T13:17:53;99184.31;;;13.57;56.20
62548;BME280;48602;45.192;5.722;2022-12-29T13:20:29;99181.44;;;13.62;56.21
62548;BME280;48602;45.192;5.722;2022-12-29T13:23:32;99183.06;;;13.65;56.05
62548;BME280;48602;45.192;5.722;2022-12-29T13:26:14;99181.13;;;13.68;56.11
62548;BME280;48602;45.192;5.722;2022-12-29T13:38:07;99176.75;;;13.67;55.53
62548;BME280;48602;45.192;5.722;2022-12-29T13:40:39;99160.88;;;13.67;56.11
62548;BME280;48602;45.192;5.722;2022-12-29T13:43:07;99163.38;;;13.70;55.86
62548;BME280;48602;45.192;5.722;2022-12-29T13:45:34;99161.56;;;13.71;56.53
62548;BME280;48602;45.192;5.722;2022-12-29T13:48:11;99159.69;;;13.73;55.93
62548;BME280;48602;45.192;5.722;2022-12-29T13:50:45;99156.88;;;13.76;57.04
62548;BME280;48602;45.192;5.722;2022-12-29T13:56:07;99150.41;;;13.81;56.33
62548;BME280;48602;45.192;5.722;2022-12-29T13:58:54;99161.84;;;13.82;57.68
62548;BME280;48602;45.192;5.722;2022-12-29T14:03:58;99170.34;;;13.88;57.24
62548;BME280;48602;45.192;5.722;2022-12-29T14:06:35;99155.22;;;13.90;57.03
62548;BME280;48602;45.192;5.722;2022-12-29T14:09:26;99161.47;;;13.89;56.73
62548;BME280;48602;45.192;5.722;2022-12-29T14:11:52;99156.31;;;13.86;56.02
62548;BME280;48602;45.192;5.722;2022-12-29T14:14:29;99158.13;;;13.86;56.11
62548;BME280;48602;45.192;5.722;2022-12-29T14:17:09;99160.84;;;13.84;55.89
62548;BME280;48602;45.192;5.722;2022-12-29T14:19:39;99153.84;;;13.83;56.34
62548;BME280;48602;45.192;5.722;2022-12-29T14:22:08;99154.75;;;13.82;56.28
62548;BME280;48602;45.192;5.722;2022-12-29T14:29:47;99150.03;;;13.72;56.04
62548;BME280;48602;45.192;5.722;2022-12-29T14:34:55;99160.94;;;13.66;55.95
62548;BME280;48602;45.192;5.722;2022-12-29T14:37:32;99161.88;;;13.65;56.21
62548;BME280;48602;45.192;5.722;2022-12-29T14:42:46;99159.53;;;13.58;56.63
62548;BME280;48602;45.192;5.722;2022-12-29T14:47:40;99160.81;;;13.51;59.19
62548;BME280;48602;45.192;5.722;2022-12-29T14:57:47;99175.63;;;13.38;56.94
62548;BME280;48602;45.192;5.722;2022-12-29T15:00:22;99181.22;;;13.32;58.08
62548;BME280;48602;45.192;5.722;2022-12-29T15:02:54;99178.63;;;13.31;58.53
62548;BME280;48602;45.192;5.722;2022-12-29T15:05:35;99171.78;;;13.26;58.56
62548;BME280;48602;45.192;5.722;2022-12-29T15:08:03;99179.97;;;13.22;62.44
62548;BME280;48602;45.192;5.722;2022-12-29T15:10:37;99187.13;;;13.20;62.78
62548;BME280;48602;45.192;5.722;2022-12-29T15:13:55;99179.31;;;13.17;63.76
62548;BME280;48602;45.192;5.722;2022-12-29T15:16:02;99201.47;;;13.14;62.92
62548;BME280;48602;45.192;5.722;2022-12-29T15:18:33;99182.25;;;13.11;64.95
62548;BME280;48602;45.192;5.722;2022-12-29T15:21:01;99181.53;;;13.07;65.82
62548;BME280;48602;45.192;5.722;2022-12-29T15:23:30;99172.66;;;13.08;65.90
62548;BME280;48602;45.192;5.722;2022-12-29T15:26:06;99196.25;;;13.13;65.23
62548;BME280;48602;45.192;5.722;2022-12-29T15:28:39;99184.72;;;13.14;64.02
62548;BME280;48602;45.192;5.722;2022-12-29T15:31:20;99182.91;;;13.16;65.66
62548;BME280;48602;45.192;5.722;2022-12-29T15:33:49;99187.34;;;13.15;63.79
62548;BME280;48602;45.192;5.722;2022-12-29T15:36:20;99174.22;;;13.12;62.27
62548;BME280;48602;45.192;5.722;2022-12-29T15:38:47;99173.50;;;13.09;61.36
62548;BME280;48602;45.192;5.722;2022-12-29T15:44:32;99189.84;;;13.00;60.74
62548;BME280;48602;45.192;5.722;2022-12-29T15:47:23;99190.84;;;12.97;60.39
62548;BME280;48602;45.192;5.722;2022-12-29T15:50:05;99186.56;;;12.94;60.49
62548;BME280;48602;45.192;5.722;2022-12-29T15:52:33;99191.06;;;12.92;60.11